sensor_id;sensor_type;location;lat;lon;timestamp;P1;durP1;ratioP1;P2;durP2;ratioP2
20000;SDS011;10161;41.188;-8.642;2022-08-14T00:01:58;8.50;;;4.90;;
20000;SDS011;10161;41.188;-8.642;2022-08-14T00:04:25;5.07;;;4.50;;
20000;SDS011;10161;41.188;-8.642;2022-08-14T00:06:52;6.30;;;4.50;;
20000;SDS011;10161;41.188;-8.642;2022-08-14T00:09:19;5.20;;;4.57;;
20000;SDS011;10161;41.188;-8.642;2022-08-14T00:11:46;4.90;;;4.40;;
20000;SDS011;10161;41.188;-8.642;2022-08-14T00:14:14;8.30;;;5.50;;
20000;SDS011;10161;41.188;-8.642;2022-08-14T00:16:41;8.77;;;6.20;;
20000;SDS011;10161;41.188;-8.642;2022-08-14T00:19:08;6.23;;;5.27;;
20000;SDS011;10161;41.188;-8.642;2022-08-14T00:21:35;7.43;;;5.80;;
20000;SDS011;10161;41.188;-8.642;2022-08-14T00:24:02;10.20;;;7.77;;
20000;SDS011;10161;41.188;-8.642;2022-08-14T00:26:29;6.33;;;5.23;;
20000;SDS011;10161;41.188;-8.642;2022-08-14T00:28:56;8.37;;;5.50;;
20000;SDS011;10161;41.188;-8.642;2022-08-14T00:31:25;9.20;;;5.90;;
20000;SDS011;10161;41.188;-8.642;2022-08-14T00:33:52;6.27;;;5.50;;
20000;SDS011;10161;41.188;-8.642;2022-08-14T00:36:20;8.17;;;5.27;;
20000;SDS011;10161;41.188;-8.642;2022-08-14T00:38:47;5.77;;;5.13;;
20000;SDS011;10161;41.188;-8.642;2022-08-14T00:41:14;8.93;;;5.00;;
20000;SDS011;10161;41.188;-8.642;2022-08-14T00:43:41;7.97;;;4.73;;
20000;SDS011;10161;41.188;-8.642;2022-08-14T00:46:10;6.70;;;5.37;;
20000;SDS011;10161;41.188;-8.642;2022-08-14T00:48:39;6.40;;;5.10;;
20000;SDS011;10161;41.188;-8.642;2022-08-14T00:51:07;5.80;;;4.40;;
20000;SDS011;10161;41.188;-8.642;2022-08-14T00:53:34;8.70;;;5.63;;
20000;SDS011;10161;41.188;-8.642;2022-08-14T00:56:02;7.07;;;5.30;;
20000;SDS011;10161;41.188;-8.642;2022-08-14T00:58:30;7.27;;;5.43;;
20000;SDS011;10161;41.188;-8.642;2022-08-14T01:00:57;8.03;;;4.90;;
20000;SDS011;10161;41.188;-8.642;2022-08-14T01:03:24;5.20;;;4.70;;
20000;SDS011;10161;41.188;-8.642;2022-08-14T01:05:55;6.57;;;5.00;;
20000;SDS011;10161;41.188;-8.642;2022-08-14T01:08:24;6.77;;;5.07;;
20000;SDS011;10161;41.188;-8.642;2022-08-14T01:10:52;7.20;;;4.40;;
20000;SDS011;10161;41.188;-8.642;2022-08-14T01:13:20;6.33;;;4.23;;
20000;SDS011;10161;41.188;-8.642;2022-08-14T01:15:48;6.33;;;4.47;;
20000;SDS011;10161;41.188;-8.642;2022-08-14T01:18:16;4.63;;;4.07;;
20000;SDS011;10161;41.188;-8.642;2022-08-14T01:21:03;5.10;;;4.10;;
20000;SDS011;10161;41.188;-8.642;2022-08-14T01:23:35;5.43;;;4.63;;
20000;SDS011;10161;41.188;-8.642;2022-08-14T01:26:05;5.97;;;4.10;;
20000;SDS011;10161;41.188;-8.642;2022-08-14T01:28:33;5.67;;;4.20;;
20000;SDS011;10161;41.188;-8.642;2022-08-14T01:31:03;5.33;;;4.10;;
20000;SDS011;10161;41.188;-8.642;2022-08-14T01:33:33;5.60;;;4.53;;
20000;SDS011;10161;41.188;-8.642;2022-08-14T01:36:02;7.30;;;5.10;;
20000;SDS011;10161;41.188;-8.642;2022-08-14T01:38:30;6.57;;;5.00;;
20000;SDS011;10161;41.188;-8.642;2022-08-14T01:41:00;5.83;;;4.73;;
20000;SDS011;10161;41.188;-8.642;2022-08-14T01:43:28;6.77;;;5.40;;
20000;SDS011;10161;41.188;-8.642;2022-08-14T01:45:57;6.93;;;5.60;;
20000;SDS011;10161;41.188;-8.642;2022-08-14T01:48:25;6.30;;;5.70;;
20000;SDS011;10161;41.188;-8.642;2022-08-14T01:50:57;7.47;;;5.47;;
20000;SDS011;10161;41.188;-8.642;2022-08-14T01:53:26;9.13;;;5.60;;
20000;SDS011;10161;41.188;-8.642;2022-08-14T01:55:56;7.40;;;5.70;;
20000;SDS011;10161;41.188;-8.642;2022-08-14T01:58:24;8.90;;;6.10;;
20000;SDS011;10161;41.188;-8.642;2022-08-14T02:00:53;9.10;;;7.63;;
20000;SDS011;10161;41.188;-8.642;2022-08-14T02:03:21;7.93;;;7.13;;
20000;SDS011;10161;41.188;-8.642;2022-08-14T02:05:48;10.30;;;7.13;;
20000;SDS011;10161;41.188;-8.642;2022-08-14T02:08:15;8.37;;;6.60;;
20000;SDS011;10161;41.188;-8.642;2022-08-14T02:10:42;7.20;;;6.40;;
20000;SDS011;10161;41.188;-8.642;2022-08-14T02:13:31;8.73;;;7.43;;
20000;SDS011;10161;41.188;-8.642;2022-08-14T02:15:58;10.57;;;8.90;;
20000;SDS011;10161;41.188;-8.642;2022-08-14T02:18:25;10.57;;;9.57;;
20000;SDS011;10161;41.188;-8.642;2022-08-14T02:20:54;11.70;;;8.47;;
20000;SDS011;10161;41.188;-8.642;2022-08-14T02:23:23;12.27;;;9.57;;
20000;SDS011;10161;41.188;-8.642;2022-08-14T02:25:50;13.97;;;9.57;;
20000;SDS011;10161;41.188;-8.642;2022-08-14T02:28:17;8.43;;;7.63;;
20000;SDS011;10161;41.188;-8.642;2022-08-14T02:30:45;8.67;;;7.57;;
20000;SDS011;10161;41.188;-8.642;2022-08-14T02:33:12;10.80;;;7.53;;
20000;SDS011;10161;41.188;-8.642;2022-08-14T02:35:39;8.20;;;7.10;;
20000;SDS011;10161;41.188;-8.642;2022-08-14T02:38:07;8.43;;;6.63;;
20000;SDS011;10161;41.188;-8.642;2022-08-14T02:40:34;8.43;;;7.60;;
20000;SDS011;10161;41.188;-8.642;2022-08-14T02:43:02;11.27;;;7.73;;
20000;SDS011;10161;41.188;-8.642;2022-08-14T02:45:30;9.83;;;6.80;;
20000;SDS011;10161;41.188;-8.642;2022-08-14T02:50:55;9.80;;;7.10;;
20000;SDS011;10161;41.188;-8.642;2022-08-14T02:53:23;9.17;;;7.13;;
20000;SDS011;10161;41.188;-8.642;2022-08-14T02:55:50;7.90;;;6.63;;
20000;SDS011;10161;41.188;-8.642;2022-08-14T02:58:18;7.83;;;6.90;;
20000;SDS011;10161;41.188;-8.642;2022-08-14T03:00:48;8.70;;;7.17;;
20000;SDS011;10161;41.188;-8.642;2022-08-14T03:03:15;8.00;;;7.20;;
20000;SDS011;10161;41.188;-8.642;2022-08-14T03:05:45;8.53;;;7.50;;
20000;SDS011;10161;41.188;-8.642;2022-08-14T03:08:15;8.13;;;7.33;;
20000;SDS011;10161;41.188;-8.642;2022-08-14T03:10:43;10.27;;;6.97;;
20000;SDS011;10161;41.188;-8.642;2022-08-14T03:13:10;8.07;;;7.23;;
20000;SDS011;10161;41.188;-8.642;2022-08-14T03:15:37;8.43;;;7.63;;
20000;SDS011;10161;41.188;-8.642;2022-08-14T03:18:08;9.50;;;7.53;;
20000;SDS011;10161;41.188;-8.642;2022-08-14T03:20:36;8.33;;;7.53;;
20000;SDS011;10161;41.188;-8.642;2022-08-14T03:23:04;9.03;;;6.97;;
20000;SDS011;10161;41.188;-8.642;2022-08-14T03:25:33;8.90;;;7.33;;
20000;SDS011;10161;41.188;-8.642;2022-08-14T03:28:02;8.27;;;7.37;;
20000;SDS011;10161;41.188;-8.642;2022-08-14T03:30:31;8.70;;;7.80;;
20000;SDS011;10161;41.188;-8.642;2022-08-14T03:33:00;8.80;;;7.93;;
20000;SDS011;10161;41.188;-8.642;2022-08-14T03:35:27;7.57;;;6.87;;
20000;SDS011;10161;41.188;-8.642;2022-08-14T03:37:55;10.77;;;8.20;;
20000;SDS011;10161;41.188;-8.642;2022-08-14T03:40:26;10.10;;;8.60;;
20000;SDS011;10161;41.188;-8.642;2022-08-14T03:42:53;11.87;;;8.47;;
20000;SDS011;10161;41.188;-8.642;2022-08-14T03:45:19;8.10;;;7.30;;
20000;SDS011;10161;41.188;-8.642;2022-08-14T03:47:49;8.37;;;7.53;;
20000;SDS011;10161;41.188;-8.642;2022-08-14T03:50:16;8.23;;;6.93;;
20000;SDS011;10161;41.188;-8.642;2022-08-14T03:55:36;8.37;;;6.67;;
20000;SDS011;10161;41.188;-8.642;2022-08-14T03:58:04;9.10;;;7.40;;
20000;SDS011;10161;41.188;-8.642;2022-08-14T04:03:15;8.10;;;7.30;;
20000;SDS011;10161;41.188;-8.642;2022-08-14T04:05:42;7.10;;;6.37;;
20000;SDS011;10161;41.188;-8.642;2022-08-14T04:08:27;13.13;;;7.43;;
20000;SDS011;10161;41.188;-8.642;2022-08-14T04:10:55;10.00;;;7.07;;
20000;SDS011;10161;41.188;-8.642;2022-08-14T04:13:23;8.60;;;7.70;;
20000;SDS011;10161;41.188;-8.642;2022-08-14T04:15:50;8.70;;;7.13;;
20000;SDS011;10161;41.188;-8.642;2022-08-14T04:18:16;9.77;;;7.50;;
20000;SDS011;10161;41.188;-8.642;2022-08-14T04:20:43;8.83;;;7.90;;
20000;SDS011;10161;41.188;-8.642;2022-08-14T04:23:10;8.43;;;7.27;;
20000;SDS011;10161;41.188;-8.642;2022-08-14T04:25:37;8.03;;;6.90;;
20000;SDS011;10161;41.188;-8.642;2022-08-14T04:28:06;8.17;;;7.03;;
20000;SDS011;10161;41.188;-8.642;2022-08-14T04:30:33;10.60;;;7.30;;
20000;SDS011;10161;41.188;-8.642;2022-08-14T04:35:40;9.90;;;6.70;;
20000;SDS011;10161;41.188;-8.642;2022-08-14T04:38:08;9.10;;;7.30;;
20000;SDS011;10161;41.188;-8.642;2022-08-14T04:40:53;7.67;;;6.97;;
20000;SDS011;10161;41.188;-8.642;2022-08-14T04:43:38;6.90;;;6.20;;
20000;SDS011;10161;41.188;-8.642;2022-08-14T04:46:06;7.67;;;6.83;;
20000;SDS011;10161;41.188;-8.642;2022-08-14T04:48:34;7.87;;;6.77;;
20000;SDS011;10161;41.188;-8.642;2022-08-14T04:51:02;7.83;;;7.03;;
20000;SDS011;10161;41.188;-8.642;2022-08-14T04:53:30;8.97;;;7.37;;
20000;SDS011;10161;41.188;-8.642;2022-08-14T04:55:58;8.87;;;7.37;;
20000;SDS011;10161;41.188;-8.642;2022-08-14T04:58:26;9.93;;;7.40;;
20000;SDS011;10161;41.188;-8.642;2022-08-14T05:00:55;8.10;;;7.20;;
20000;SDS011;10161;41.188;-8.642;2022-08-14T05:03:24;8.70;;;7.77;;
20000;SDS011;10161;41.188;-8.642;2022-08-14T05:05:56;8.90;;;7.33;;
20000;SDS011;10161;41.188;-8.642;2022-08-14T05:08:24;7.70;;;6.90;;
20000;SDS011;10161;41.188;-8.642;2022-08-14T05:10:53;10.10;;;8.10;;
20000;SDS011;10161;41.188;-8.642;2022-08-14T05:13:21;10.53;;;7.43;;
20000;SDS011;10161;41.188;-8.642;2022-08-14T05:16:04;8.63;;;7.73;;
20000;SDS011;10161;41.188;-8.642;2022-08-14T05:18:32;16.90;;;10.33;;
20000;SDS011;10161;41.188;-8.642;2022-08-14T05:24:22;8.40;;;7.20;;
20000;SDS011;10161;41.188;-8.642;2022-08-14T05:26:49;9.60;;;8.07;;
20000;SDS011;10161;41.188;-8.642;2022-08-14T05:29:16;10.00;;;8.27;;
20000;SDS011;10161;41.188;-8.642;2022-08-14T05:31:44;8.90;;;8.00;;
20000;SDS011;10161;41.188;-8.642;2022-08-14T05:34:11;9.30;;;8.40;;
20000;SDS011;10161;41.188;-8.642;2022-08-14T05:36:38;11.10;;;8.10;;
20000;SDS011;10161;41.188;-8.642;2022-08-14T05:39:06;10.43;;;7.33;;
20000;SDS011;10161;41.188;-8.642;2022-08-14T05:41:33;10.10;;;8.80;;
20000;SDS011;10161;41.188;-8.642;2022-08-14T05:44:00;10.70;;;8.30;;
20000;SDS011;10161;41.188;-8.642;2022-08-14T05:46:27;7.77;;;7.07;;
20000;SDS011;10161;41.188;-8.642;2022-08-14T05:48:56;10.70;;;6.73;;
20000;SDS011;10161;41.188;-8.642;2022-08-14T05:51:24;11.53;;;7.73;;
20000;SDS011;10161;41.188;-8.642;2022-08-14T05:53:52;8.73;;;7.93;;
20000;SDS011;10161;41.188;-8.642;2022-08-14T05:56:19;8.87;;;7.97;;
20000;SDS011;10161;41.188;-8.642;2022-08-14T05:58:48;7.93;;;7.13;;
20000;SDS011;10161;41.188;-8.642;2022-08-14T06:01:15;9.60;;;7.13;;
20000;SDS011;10161;41.188;-8.642;2022-08-14T06:03:47;8.00;;;7.20;;
20000;SDS011;10161;41.188;-8.642;2022-08-14T06:06:16;8.87;;;7.97;;
20000;SDS011;10161;41.188;-8.642;2022-08-14T06:08:43;10.03;;;9.03;;
20000;SDS011;10161;41.188;-8.642;2022-08-14T06:11:10;10.43;;;9.33;;
20000;SDS011;10161;41.188;-8.642;2022-08-14T06:13:39;10.83;;;8.90;;
20000;SDS011;10161;41.188;-8.642;2022-08-14T06:16:07;9.70;;;7.80;;
20000;SDS011;10161;41.188;-8.642;2022-08-14T06:18:34;14.83;;;10.20;;
20000;SDS011;10161;41.188;-8.642;2022-08-14T06:21:02;11.47;;;10.23;;
20000;SDS011;10161;41.188;-8.642;2022-08-14T06:23:31;14.70;;;9.90;;
20000;SDS011;10161;41.188;-8.642;2022-08-14T06:25:59;10.13;;;9.10;;
20000;SDS011;10161;41.188;-8.642;2022-08-14T06:28:26;10.57;;;9.57;;
20000;SDS011;10161;41.188;-8.642;2022-08-14T06:30:54;9.60;;;8.70;;
20000;SDS011;10161;41.188;-8.642;2022-08-14T06:33:22;11.87;;;9.37;;
20000;SDS011;10161;41.188;-8.642;2022-08-14T06:35:49;12.77;;;9.00;;
20000;SDS011;10161;41.188;-8.642;2022-08-14T06:38:17;11.83;;;9.10;;
20000;SDS011;10161;41.188;-8.642;2022-08-14T06:40:47;10.17;;;9.20;;
20000;SDS011;10161;41.188;-8.642;2022-08-14T06:43:14;10.47;;;9.20;;
20000;SDS011;10161;41.188;-8.642;2022-08-14T06:45:43;12.73;;;9.37;;
20000;SDS011;10161;41.188;-8.642;2022-08-14T06:48:12;9.67;;;8.70;;
20000;SDS011;10161;41.188;-8.642;2022-08-14T06:50:40;9.90;;;8.90;;
20000;SDS011;10161;41.188;-8.642;2022-08-14T06:53:07;9.50;;;8.20;;
20000;SDS011;10161;41.188;-8.642;2022-08-14T06:55:35;8.13;;;7.30;;
20000;SDS011;10161;41.188;-8.642;2022-08-14T06:58:05;9.40;;;8.40;;
20000;SDS011;10161;41.188;-8.642;2022-08-14T07:00:36;10.73;;;8.73;;
20000;SDS011;10161;41.188;-8.642;2022-08-14T07:03:04;9.87;;;8.87;;
20000;SDS011;10161;41.188;-8.642;2022-08-14T07:05:49;9.00;;;7.87;;
20000;SDS011;10161;41.188;-8.642;2022-08-14T07:08:16;10.27;;;9.23;;
20000;SDS011;10161;41.188;-8.642;2022-08-14T07:10:45;9.37;;;8.40;;
20000;SDS011;10161;41.188;-8.642;2022-08-14T07:13:15;10.20;;;8.33;;
20000;SDS011;10161;41.188;-8.642;2022-08-14T07:15:43;10.00;;;8.77;;
20000;SDS011;10161;41.188;-8.642;2022-08-14T07:18:14;9.70;;;8.70;;
20000;SDS011;10161;41.188;-8.642;2022-08-14T07:20:44;10.57;;;9.50;;
20000;SDS011;10161;41.188;-8.642;2022-08-14T07:23:11;11.93;;;10.20;;
20000;SDS011;10161;41.188;-8.642;2022-08-14T07:25:39;12.07;;;10.73;;
20000;SDS011;10161;41.188;-8.642;2022-08-14T07:28:07;13.10;;;9.80;;
20000;SDS011;10161;41.188;-8.642;2022-08-14T07:30:37;16.40;;;10.70;;
20000;SDS011;10161;41.188;-8.642;2022-08-14T07:33:05;10.27;;;9.17;;
20000;SDS011;10161;41.188;-8.642;2022-08-14T07:35:32;11.33;;;8.97;;
20000;SDS011;10161;41.188;-8.642;2022-08-14T07:38:01;9.90;;;8.77;;
20000;SDS011;10161;41.188;-8.642;2022-08-14T07:40:30;10.20;;;8.60;;
20000;SDS011;10161;41.188;-8.642;2022-08-14T07:42:57;10.00;;;8.70;;
20000;SDS011;10161;41.188;-8.642;2022-08-14T07:45:24;10.90;;;9.73;;
20000;SDS011;10161;41.188;-8.642;2022-08-14T07:47:52;9.27;;;8.20;;
20000;SDS011;10161;41.188;-8.642;2022-08-14T07:50:22;9.97;;;7.63;;
20000;SDS011;10161;41.188;-8.642;2022-08-14T07:52:49;8.70;;;7.47;;
20000;SDS011;10161;41.188;-8.642;2022-08-14T07:55:17;7.97;;;7.17;;
20000;SDS011;10161;41.188;-8.642;2022-08-14T07:57:46;7.17;;;6.27;;
20000;SDS011;10161;41.188;-8.642;2022-08-14T08:00:16;11.37;;;7.00;;
20000;SDS011;10161;41.188;-8.642;2022-08-14T08:02:46;10.57;;;7.27;;
20000;SDS011;10161;41.188;-8.642;2022-08-14T08:05:15;8.23;;;6.50;;
20000;SDS011;10161;41.188;-8.642;2022-08-14T08:07:44;8.23;;;6.63;;
20000;SDS011;10161;41.188;-8.642;2022-08-14T08:10:12;9.23;;;5.70;;
20000;SDS011;10161;41.188;-8.642;2022-08-14T08:12:59;7.93;;;6.03;;
20000;SDS011;10161;41.188;-8.642;2022-08-14T08:15:28;5.40;;;4.90;;
20000;SDS011;10161;41.188;-8.642;2022-08-14T08:17:57;5.10;;;4.60;;
20000;SDS011;10161;41.188;-8.642;2022-08-14T08:20:27;6.30;;;5.03;;
20000;SDS011;10161;41.188;-8.642;2022-08-14T08:22:56;4.93;;;4.33;;
20000;SDS011;10161;41.188;-8.642;2022-08-14T08:25:23;7.70;;;4.67;;
20000;SDS011;10161;41.188;-8.642;2022-08-14T08:27:54;7.57;;;4.63;;
20000;SDS011;10161;41.188;-8.642;2022-08-14T08:30:22;4.90;;;3.97;;
20000;SDS011;10161;41.188;-8.642;2022-08-14T08:32:50;5.73;;;4.50;;
20000;SDS011;10161;41.188;-8.642;2022-08-14T08:35:18;5.27;;;4.07;;
20000;SDS011;10161;41.188;-8.642;2022-08-14T08:37:47;5.20;;;3.87;;
20000;SDS011;10161;41.188;-8.642;2022-08-14T08:40:21;6.10;;;4.70;;
20000;SDS011;10161;41.188;-8.642;2022-08-14T08:42:49;5.50;;;4.23;;
20000;SDS011;10161;41.188;-8.642;2022-08-14T08:45:16;6.13;;;4.57;;
20000;SDS011;10161;41.188;-8.642;2022-08-14T08:47:44;6.30;;;4.33;;
20000;SDS011;10161;41.188;-8.642;2022-08-14T08:50:18;8.00;;;4.60;;
20000;SDS011;10161;41.188;-8.642;2022-08-14T08:52:49;11.23;;;4.87;;
20000;SDS011;10161;41.188;-8.642;2022-08-14T08:55:22;5.97;;;4.43;;
20000;SDS011;10161;41.188;-8.642;2022-08-14T08:57:53;7.53;;;4.53;;
20000;SDS011;10161;41.188;-8.642;2022-08-14T09:00:21;8.00;;;4.90;;
20000;SDS011;10161;41.188;-8.642;2022-08-14T09:02:55;7.00;;;4.13;;
20000;SDS011;10161;41.188;-8.642;2022-08-14T09:05:33;5.23;;;3.60;;
20000;SDS011;10161;41.188;-8.642;2022-08-14T09:08:11;8.67;;;4.87;;
20000;SDS011;10161;41.188;-8.642;2022-08-14T09:10:39;10.57;;;4.70;;
20000;SDS011;10161;41.188;-8.642;2022-08-14T09:13:06;13.47;;;8.73;;
20000;SDS011;10161;41.188;-8.642;2022-08-14T09:15:35;10.23;;;8.17;;
20000;SDS011;10161;41.188;-8.642;2022-08-14T09:18:06;9.00;;;5.40;;
20000;SDS011;10161;41.188;-8.642;2022-08-14T09:20:36;6.53;;;4.80;;
20000;SDS011;10161;41.188;-8.642;2022-08-14T09:23:07;7.27;;;5.00;;
20000;SDS011;10161;41.188;-8.642;2022-08-14T09:25:38;9.40;;;6.27;;
20000;SDS011;10161;41.188;-8.642;2022-08-14T09:28:06;5.73;;;4.40;;
20000;SDS011;10161;41.188;-8.642;2022-08-14T09:30:34;7.10;;;4.67;;
20000;SDS011;10161;41.188;-8.642;2022-08-14T09:36:02;8.40;;;6.00;;
20000;SDS011;10161;41.188;-8.642;2022-08-14T09:38:37;7.30;;;4.80;;
20000;SDS011;10161;41.188;-8.642;2022-08-14T09:41:17;5.33;;;3.40;;
20000;SDS011;10161;41.188;-8.642;2022-08-14T09:43:58;4.17;;;2.70;;
20000;SDS011;10161;41.188;-8.642;2022-08-14T09:46:26;4.37;;;3.33;;
20000;SDS011;10161;41.188;-8.642;2022-08-14T09:48:57;6.87;;;3.80;;
20000;SDS011;10161;41.188;-8.642;2022-08-14T09:51:24;4.73;;;3.23;;
20000;SDS011;10161;41.188;-8.642;2022-08-14T09:53:58;4.90;;;3.60;;
20000;SDS011;10161;41.188;-8.642;2022-08-14T09:56:43;4.57;;;3.43;;
20000;SDS011;10161;41.188;-8.642;2022-08-14T09:59:11;6.30;;;3.80;;
20000;SDS011;10161;41.188;-8.642;2022-08-14T10:01:39;8.00;;;4.23;;
20000;SDS011;10161;41.188;-8.642;2022-08-14T10:04:16;7.53;;;4.40;;
20000;SDS011;10161;41.188;-8.642;2022-08-14T10:06:46;5.20;;;4.33;;
20000;SDS011;10161;41.188;-8.642;2022-08-14T10:09:13;5.00;;;4.10;;
20000;SDS011;10161;41.188;-8.642;2022-08-14T10:11:40;4.10;;;3.40;;
20000;SDS011;10161;41.188;-8.642;2022-08-14T10:14:20;5.13;;;2.90;;
20000;SDS011;10161;41.188;-8.642;2022-08-14T10:16:49;4.70;;;3.40;;
20000;SDS011;10161;41.188;-8.642;2022-08-14T10:19:19;6.60;;;3.57;;
20000;SDS011;10161;41.188;-8.642;2022-08-14T10:21:55;6.90;;;4.60;;
20000;SDS011;10161;41.188;-8.642;2022-08-14T10:24:27;7.93;;;5.33;;
20000;SDS011;10161;41.188;-8.642;2022-08-14T10:27:00;8.13;;;4.53;;
20000;SDS011;10161;41.188;-8.642;2022-08-14T10:29:31;9.33;;;4.40;;
20000;SDS011;10161;41.188;-8.642;2022-08-14T10:31:59;7.50;;;4.40;;
20000;SDS011;10161;41.188;-8.642;2022-08-14T10:34:31;10.60;;;4.70;;
20000;SDS011;10161;41.188;-8.642;2022-08-14T10:37:03;8.60;;;4.30;;
20000;SDS011;10161;41.188;-8.642;2022-08-14T10:39:33;7.90;;;4.17;;
20000;SDS011;10161;41.188;-8.642;2022-08-14T10:42:04;6.60;;;3.97;;
20000;SDS011;10161;41.188;-8.642;2022-08-14T10:44:32;5.70;;;3.63;;
20000;SDS011;10161;41.188;-8.642;2022-08-14T10:47:03;5.23;;;3.30;;
20000;SDS011;10161;41.188;-8.642;2022-08-14T10:49:34;6.80;;;3.77;;
20000;SDS011;10161;41.188;-8.642;2022-08-14T10:52:03;8.63;;;4.23;;
20000;SDS011;10161;41.188;-8.642;2022-08-14T10:54:33;5.77;;;3.83;;
20000;SDS011;10161;41.188;-8.642;2022-08-14T10:59:53;8.43;;;3.80;;
20000;SDS011;10161;41.188;-8.642;2022-08-14T11:02:25;6.93;;;3.70;;
20000;SDS011;10161;41.188;-8.642;2022-08-14T11:04:58;7.50;;;3.40;;
20000;SDS011;10161;41.188;-8.642;2022-08-14T11:07:26;7.23;;;4.20;;
20000;SDS011;10161;41.188;-8.642;2022-08-14T11:09:54;8.10;;;3.23;;
20000;SDS011;10161;41.188;-8.642;2022-08-14T11:12:21;6.27;;;3.20;;
20000;SDS011;10161;41.188;-8.642;2022-08-14T11:14:52;7.00;;;3.20;;
20000;SDS011;10161;41.188;-8.642;2022-08-14T11:17:19;3.83;;;3.40;;
20000;SDS011;10161;41.188;-8.642;2022-08-14T11:19:47;8.00;;;3.37;;
20000;SDS011;10161;41.188;-8.642;2022-08-14T11:22:15;4.50;;;3.50;;
20000;SDS011;10161;41.188;-8.642;2022-08-14T11:24:45;6.03;;;3.10;;
20000;SDS011;10161;41.188;-8.642;2022-08-14T11:27:12;5.97;;;3.43;;
20000;SDS011;10161;41.188;-8.642;2022-08-14T11:29:41;8.20;;;3.60;;
20000;SDS011;10161;41.188;-8.642;2022-08-14T11:32:10;5.90;;;2.90;;
20000;SDS011;10161;41.188;-8.642;2022-08-14T11:34:37;4.73;;;3.00;;
20000;SDS011;10161;41.188;-8.642;2022-08-14T11:37:08;5.77;;;3.10;;
20000;SDS011;10161;41.188;-8.642;2022-08-14T11:39:35;5.03;;;2.80;;
20000;SDS011;10161;41.188;-8.642;2022-08-14T11:42:02;5.40;;;3.03;;
20000;SDS011;10161;41.188;-8.642;2022-08-14T11:47:54;6.83;;;3.63;;
20000;SDS011;10161;41.188;-8.642;2022-08-14T11:50:22;6.50;;;3.57;;
20000;SDS011;10161;41.188;-8.642;2022-08-14T11:52:50;8.50;;;4.30;;
20000;SDS011;10161;41.188;-8.642;2022-08-14T11:55:22;7.63;;;3.00;;
20000;SDS011;10161;41.188;-8.642;2022-08-14T11:57:57;6.43;;;3.10;;
20000;SDS011;10161;41.188;-8.642;2022-08-14T12:00:25;6.43;;;3.70;;
20000;SDS011;10161;41.188;-8.642;2022-08-14T12:02:55;5.30;;;3.43;;
20000;SDS011;10161;41.188;-8.642;2022-08-14T12:05:28;9.23;;;3.70;;
20000;SDS011;10161;41.188;-8.642;2022-08-14T12:07:57;5.40;;;3.30;;
20000;SDS011;10161;41.188;-8.642;2022-08-14T12:10:26;11.23;;;4.20;;
20000;SDS011;10161;41.188;-8.642;2022-08-14T12:12:55;6.30;;;3.30;;
20000;SDS011;10161;41.188;-8.642;2022-08-14T12:15:29;7.07;;;3.70;;
20000;SDS011;10161;41.188;-8.642;2022-08-14T12:17:59;4.87;;;3.30;;
20000;SDS011;10161;41.188;-8.642;2022-08-14T12:20:30;10.27;;;3.10;;
20000;SDS011;10161;41.188;-8.642;2022-08-14T12:22:58;8.00;;;3.30;;
20000;SDS011;10161;41.188;-8.642;2022-08-14T12:25:27;8.53;;;3.23;;
20000;SDS011;10161;41.188;-8.642;2022-08-14T12:27:55;8.17;;;3.00;;
20000;SDS011;10161;41.188;-8.642;2022-08-14T12:30:31;5.87;;;3.20;;
20000;SDS011;10161;41.188;-8.642;2022-08-14T12:33:00;6.03;;;2.90;;
20000;SDS011;10161;41.188;-8.642;2022-08-14T12:35:35;8.30;;;4.20;;
20000;SDS011;10161;41.188;-8.642;2022-08-14T12:38:03;7.47;;;4.10;;
20000;SDS011;10161;41.188;-8.642;2022-08-14T12:40:31;3.80;;;2.90;;
20000;SDS011;10161;41.188;-8.642;2022-08-14T12:42:59;9.93;;;5.10;;
20000;SDS011;10161;41.188;-8.642;2022-08-14T12:45:31;7.23;;;4.20;;
20000;SDS011;10161;41.188;-8.642;2022-08-14T12:48:03;6.47;;;3.60;;
20000;SDS011;10161;41.188;-8.642;2022-08-14T12:50:34;7.43;;;3.73;;
20000;SDS011;10161;41.188;-8.642;2022-08-14T12:53:02;8.23;;;3.37;;
20000;SDS011;10161;41.188;-8.642;2022-08-14T12:55:29;5.33;;;3.07;;
20000;SDS011;10161;41.188;-8.642;2022-08-14T12:58:00;8.30;;;3.40;;
20000;SDS011;10161;41.188;-8.642;2022-08-14T13:00:31;8.10;;;3.40;;
20000;SDS011;10161;41.188;-8.642;2022-08-14T13:02:59;7.07;;;2.97;;
20000;SDS011;10161;41.188;-8.642;2022-08-14T13:05:30;5.50;;;3.10;;
20000;SDS011;10161;41.188;-8.642;2022-08-14T13:07:59;8.40;;;3.27;;
20000;SDS011;10161;41.188;-8.642;2022-08-14T13:10:30;11.77;;;3.50;;
20000;SDS011;10161;41.188;-8.642;2022-08-14T13:12:58;8.50;;;3.60;;
20000;SDS011;10161;41.188;-8.642;2022-08-14T13:15:26;5.70;;;3.20;;
20000;SDS011;10161;41.188;-8.642;2022-08-14T13:17:54;5.90;;;2.87;;
20000;SDS011;10161;41.188;-8.642;2022-08-14T13:20:24;15.03;;;3.70;;
20000;SDS011;10161;41.188;-8.642;2022-08-14T13:22:53;7.80;;;3.10;;
20000;SDS011;10161;41.188;-8.642;2022-08-14T13:25:21;7.50;;;3.33;;
20000;SDS011;10161;41.188;-8.642;2022-08-14T13:27:50;7.80;;;2.90;;
20000;SDS011;10161;41.188;-8.642;2022-08-14T13:30:20;10.50;;;3.70;;
20000;SDS011;10161;41.188;-8.642;2022-08-14T13:32:48;6.50;;;3.80;;
20000;SDS011;10161;41.188;-8.642;2022-08-14T13:35:16;6.87;;;3.40;;
20000;SDS011;10161;41.188;-8.642;2022-08-14T13:37:44;6.03;;;2.80;;
20000;SDS011;10161;41.188;-8.642;2022-08-14T13:40:16;8.67;;;3.77;;
20000;SDS011;10161;41.188;-8.642;2022-08-14T13:42:44;7.37;;;3.73;;
20000;SDS011;10161;41.188;-8.642;2022-08-14T13:45:12;5.93;;;3.20;;
20000;SDS011;10161;41.188;-8.642;2022-08-14T13:47:40;9.00;;;4.00;;
20000;SDS011;10161;41.188;-8.642;2022-08-14T13:50:09;7.53;;;3.30;;
20000;SDS011;10161;41.188;-8.642;2022-08-14T13:52:38;6.17;;;3.17;;
20000;SDS011;10161;41.188;-8.642;2022-08-14T13:55:07;8.03;;;3.27;;
20000;SDS011;10161;41.188;-8.642;2022-08-14T13:57:38;6.50;;;3.23;;
20000;SDS011;10161;41.188;-8.642;2022-08-14T14:00:09;4.63;;;2.93;;
20000;SDS011;10161;41.188;-8.642;2022-08-14T14:02:37;6.33;;;3.20;;
20000;SDS011;10161;41.188;-8.642;2022-08-14T14:05:05;7.63;;;3.00;;
20000;SDS011;10161;41.188;-8.642;2022-08-14T14:07:33;6.10;;;3.30;;
20000;SDS011;10161;41.188;-8.642;2022-08-14T14:10:03;6.20;;;3.00;;
20000;SDS011;10161;41.188;-8.642;2022-08-14T14:12:32;10.07;;;3.00;;
20000;SDS011;10161;41.188;-8.642;2022-08-14T14:15:05;9.57;;;3.67;;
20000;SDS011;10161;41.188;-8.642;2022-08-14T14:17:34;8.67;;;3.27;;
20000;SDS011;10161;41.188;-8.642;2022-08-14T14:20:03;6.50;;;3.17;;
20000;SDS011;10161;41.188;-8.642;2022-08-14T14:22:32;8.60;;;3.50;;
20000;SDS011;10161;41.188;-8.642;2022-08-14T14:24:59;8.20;;;3.33;;
20000;SDS011;10161;41.188;-8.642;2022-08-14T14:27:26;6.00;;;2.87;;
20000;SDS011;10161;41.188;-8.642;2022-08-14T14:29:55;10.70;;;3.47;;
20000;SDS011;10161;41.188;-8.642;2022-08-14T14:32:28;7.00;;;3.13;;
20000;SDS011;10161;41.188;-8.642;2022-08-14T14:34:57;7.47;;;3.50;;
20000;SDS011;10161;41.188;-8.642;2022-08-14T14:37:26;5.80;;;3.10;;
20000;SDS011;10161;41.188;-8.642;2022-08-14T14:39:55;10.60;;;4.20;;
20000;SDS011;10161;41.188;-8.642;2022-08-14T14:42:24;7.27;;;3.27;;
20000;SDS011;10161;41.188;-8.642;2022-08-14T14:44:55;10.03;;;3.87;;
20000;SDS011;10161;41.188;-8.642;2022-08-14T14:47:31;7.80;;;3.17;;
20000;SDS011;10161;41.188;-8.642;2022-08-14T14:49:59;4.77;;;3.30;;
20000;SDS011;10161;41.188;-8.642;2022-08-14T14:52:29;3.77;;;3.13;;
20000;SDS011;10161;41.188;-8.642;2022-08-14T14:54:56;7.27;;;3.20;;
20000;SDS011;10161;41.188;-8.642;2022-08-14T14:57:24;5.77;;;2.80;;
20000;SDS011;10161;41.188;-8.642;2022-08-14T14:59:52;10.50;;;3.97;;
20000;SDS011;10161;41.188;-8.642;2022-08-14T15:02:25;6.70;;;3.40;;
20000;SDS011;10161;41.188;-8.642;2022-08-14T15:05:00;6.77;;;3.07;;
20000;SDS011;10161;41.188;-8.642;2022-08-14T15:07:29;6.90;;;3.10;;